createdAt,value
2023-04-22T02:21:56.464Z,5.60
2023-04-22T02:27:00.230Z,5.63
2023-04-22T02:32:03.402Z,4.22
2023-04-22T02:37:07.694Z,4.70
2023-04-22T02:42:10.606Z,5.00
2023-04-22T02:47:13.341Z,4.70
2023-04-22T02:52:17.740Z,5.35
2023-04-22T02:57:20.987Z,4.65
2023-04-22T03:02:24.077Z,5.20
2023-04-22T03:07:42.242Z,5.53
2023-04-22T03:12:44.982Z,4.63
2023-04-22T03:17:48.403Z,5.45
2023-04-22T03:22:53.099Z,5.38
2023-04-22T03:27:56.951Z,5.88
2023-04-22T03:33:01.215Z,4.95
2023-04-22T03:38:15.885Z,5.45
2023-04-22T03:43:18.872Z,5.60
2023-04-22T03:48:35.497Z,5.18
2023-04-22T03:53:43.628Z,5.38
2023-04-22T03:58:52.160Z,4.80
2023-04-22T04:03:55.188Z,4.18
2023-04-22T04:09:01.713Z,4.90
2023-04-22T04:14:05.268Z,6.07
2023-04-22T04:19:16.513Z,5.43
2023-04-22T04:24:20.839Z,5.13
2023-04-22T04:29:27.020Z,5.80
2023-04-22T04:34:42.541Z,18.27
2023-04-22T04:39:48.508Z,9.13
2023-04-22T04:44:52.178Z,9.45
2023-04-22T04:49:58.550Z,8.07
2023-04-22T04:55:02.944Z,7.25
2023-04-22T05:00:10.581Z,6.25
2023-04-22T05:05:14.267Z,5.72
2023-04-22T05:10:20.655Z,6.53
2023-04-22T05:15:23.832Z,6.97
2023-04-22T05:20:27.381Z,6.13
2023-04-22T05:25:31.809Z,6.35
2023-04-22T05:30:40.316Z,5.95
2023-04-22T05:35:44.491Z,5.45
2023-04-22T05:40:49.002Z,6.43
2023-04-22T05:45:52.665Z,7.32
2023-04-22T05:50:56.831Z,7.22
2023-04-22T05:56:02.569Z,8.80
2023-04-22T06:01:05.799Z,6.47
2023-04-22T06:06:28.604Z,5.45
2023-04-22T06:11:32.920Z,6.18
2023-04-22T06:16:35.815Z,5.63
2023-04-22T06:21:42.105Z,5.80
2023-04-22T06:26:46.309Z,5.60
2023-04-22T06:31:49.163Z,6.38
2023-04-22T06:36:54.783Z,7.15
2023-04-22T06:41:59.816Z,7.03
2023-04-22T06:47:23.361Z,4.47
2023-04-22T06:52:43.539Z,4.95
2023-04-22T06:57:47.773Z,4.45
2023-04-22T07:02:50.630Z,4.47
2023-04-22T07:07:53.641Z,4.20
2023-04-22T07:13:00.464Z,3.72
2023-04-22T07:18:03.174Z,3.55
2023-04-22T07:23:06.105Z,3.60
2023-04-22T07:28:10.318Z,3.40
2023-04-22T07:33:13.001Z,3.78
2023-04-22T07:38:17.750Z,3.67
2023-04-22T07:43:21.828Z,6.40
2023-04-22T07:48:24.558Z,3.67
2023-04-22T07:53:27.339Z,3.58
2023-04-22T07:58:31.556Z,3.83
2023-04-22T08:03:34.658Z,3.10
2023-04-22T08:08:37.629Z,3.20
2023-04-22T08:13:41.752Z,3.60
2023-04-22T08:18:44.548Z,2.92
2023-04-22T08:23:47.872Z,3.20
2023-04-22T08:28:52.025Z,2.70
2023-04-22T08:33:54.819Z,3.08
2023-04-22T08:38:57.598Z,3.17
2023-04-22T08:44:02.167Z,2.40
2023-04-22T08:49:05.429Z,2.42
2023-04-22T08:54:08.285Z,2.28
2023-04-22T08:59:13.828Z,2.13
2023-04-22T09:04:18.687Z,1.90
2023-04-22T09:09:21.998Z,1.70
2023-04-22T09:14:26.967Z,1.52
2023-04-22T09:19:29.694Z,1.70
2023-04-22T09:24:32.627Z,2.20
2023-04-22T09:29:37.224Z,1.50
2023-04-22T09:34:51.875Z,1.60
2023-04-22T09:39:55.513Z,1.52
2023-04-22T09:45:01.952Z,1.98
2023-04-22T09:50:05.559Z,1.80
2023-04-22T09:55:10.239Z,2.08
2023-04-22T10:00:17.369Z,1.70
2023-04-22T10:05:20.775Z,1.73
2023-04-22T10:10:25.302Z,1.52
2023-04-22T10:15:34.262Z,1.58
2023-04-22T10:20:38.836Z,1.52
2023-04-22T10:25:42.073Z,2.25
2023-04-22T10:30:46.181Z,1.80
2023-04-22T10:36:07.975Z,1.60
2023-04-22T10:41:15.320Z,1.65
2023-04-22T10:47:00.174Z,2.08
2023-04-22T10:52:04.992Z,1.35
2023-04-22T10:57:10.226Z,1.30
2023-04-22T11:02:15.965Z,1.75
2023-04-22T11:07:32.029Z,1.65
2023-04-22T11:12:44.900Z,1.83
2023-04-22T11:17:51.902Z,2.22
2023-04-22T11:22:56.874Z,1.75
2023-04-22T11:28:00.468Z,2.03
2023-04-22T11:33:04.899Z,2.20
2023-04-22T11:38:08.777Z,1.70
2023-04-22T11:43:12.243Z,1.85
2023-04-22T11:48:16.714Z,2.28
2023-04-22T11:53:21.437Z,1.63
2023-04-22T11:58:28.123Z,1.88
2023-04-22T12:03:35.949Z,1.80
2023-04-22T12:08:42.523Z,1.83
2023-04-22T12:13:46.806Z,1.75
2023-04-22T12:18:53.009Z,2.13
2023-04-22T12:23:59.287Z,1.65
2023-04-22T12:34:06.532Z,1.98
2023-04-22T12:39:10.608Z,1.83
2023-04-22T12:44:13.606Z,1.92
2023-04-22T12:49:17.876Z,2.17
2023-04-22T12:54:20.977Z,5.20
2023-04-22T12:59:24.096Z,2.00
2023-04-22T13:04:28.739Z,2.78
2023-04-22T13:09:31.999Z,2.17
2023-04-22T13:14:34.744Z,2.40
2023-04-22T13:19:39.148Z,2.70
2023-04-22T13:24:42.151Z,2.47
2023-04-22T13:29:45.424Z,2.28
2023-04-22T13:34:50.112Z,2.53
2023-04-22T13:39:52.834Z,2.45
2023-04-22T13:44:56.741Z,1.85
2023-04-22T13:50:01.985Z,1.98
2023-04-22T13:55:05.424Z,2.17
2023-04-22T14:00:10.148Z,2.03
2023-04-22T14:05:16.331Z,3.27
2023-04-22T14:10:20.452Z,2.70
2023-04-22T14:15:24.250Z,2.10
2023-04-22T14:20:28.697Z,2.33
2023-04-22T14:25:31.459Z,2.15
2023-04-22T14:30:34.930Z,2.80
2023-04-22T14:35:39.982Z,1.63
2023-04-22T14:40:43.023Z,1.45
2023-04-22T14:45:47.215Z,1.98
2023-04-22T14:50:51.563Z,1.75
2023-04-22T14:55:55.722Z,1.92
2023-04-22T15:00:59.697Z,1.77
2023-04-22T15:06:04.049Z,1.95
2023-04-22T15:11:07.815Z,1.63
2023-04-22T15:16:10.615Z,1.65
2023-04-22T15:21:14.762Z,1.58
2023-04-22T15:26:17.730Z,1.83
2023-04-22T15:31:21.944Z,2.20
2023-04-22T15:36:26.017Z,1.85
2023-04-22T15:41:28.774Z,4.80
2023-04-22T15:46:33.321Z,1.70
2023-04-22T15:51:38.137Z,1.88
2023-04-22T15:56:40.930Z,1.98
2023-04-22T16:01:46.148Z,1.80
2023-04-22T16:06:51.654Z,2.20
2023-04-22T16:11:56.105Z,1.83
2023-04-22T16:16:59.346Z,1.90
2023-04-22T16:22:03.803Z,1.50
2023-04-22T16:27:06.768Z,2.17
2023-04-22T16:32:09.484Z,1.42
2023-04-22T16:37:13.616Z,1.80
2023-04-22T16:42:16.431Z,1.55
2023-04-22T16:47:19.214Z,1.80
2023-04-22T16:52:24.224Z,1.85
2023-04-22T16:57:27.206Z,1.73
2023-04-22T17:02:30.861Z,1.90
2023-04-22T17:07:36.921Z,1.83
2023-04-22T17:12:40.044Z,1.63
2023-04-22T17:17:42.874Z,1.58
2023-04-22T17:22:47.201Z,1.45
2023-04-22T17:27:51.156Z,1.50
2023-04-22T17:32:53.933Z,2.13
2023-04-22T17:37:58.348Z,2.65
2023-04-22T17:43:01.265Z,1.92
2023-04-22T17:48:04.210Z,1.58
2023-04-22T17:53:09.545Z,1.80
2023-04-22T17:58:12.999Z,1.95
2023-04-22T18:03:16.935Z,1.65
2023-04-22T18:08:21.213Z,2.22
2023-04-22T18:13:24.912Z,2.40
2023-04-22T18:18:28.122Z,1.88
2023-04-22T18:23:32.298Z,3.47
2023-04-22T18:28:37.465Z,2.33
2023-04-22T18:33:40.597Z,2.97
2023-04-22T18:38:45.403Z,2.85
2023-04-22T18:43:48.482Z,2.63
2023-04-22T18:48:51.960Z,2.33
2023-04-22T18:53:56.443Z,2.50
2023-04-22T18:58:59.816Z,3.03
2023-04-22T19:04:04.405Z,2.20
2023-04-22T19:09:09.309Z,1.80
2023-04-22T19:14:13.717Z,1.80
2023-04-22T19:19:16.737Z,2.58
2023-04-22T19:24:21.467Z,1.88
2023-04-22T19:29:24.239Z,2.00
2023-04-22T19:34:28.666Z,1.80
2023-04-22T19:39:32.915Z,1.67
2023-04-22T19:44:36.341Z,2.30
2023-04-22T19:49:40.984Z,2.17
2023-04-22T19:54:48.074Z,2.30
2023-04-22T19:59:52.037Z,2.47
2023-04-22T20:04:55.199Z,1.85
2023-04-22T20:10:01.002Z,2.55
2023-04-22T20:15:05.309Z,2.25
2023-04-22T20:20:15.159Z,2.00
2023-04-22T20:25:20.343Z,3.63
2023-04-22T20:30:23.246Z,2.38
2023-04-22T20:35:26.670Z,2.35
2023-04-22T20:40:31.689Z,2.40
2023-04-22T20:45:34.455Z,3.35
2023-04-22T20:50:38.147Z,2.28
2023-04-22T20:55:42.350Z,3.22
2023-04-22T21:00:46.087Z,2.92
2023-04-22T21:05:49.481Z,2.42
2023-04-22T21:10:55.404Z,2.38
2023-04-22T21:16:00.224Z,3.22
2023-04-22T21:21:04.263Z,2.60
2023-04-22T21:26:10.057Z,3.20
2023-04-22T21:31:13.779Z,2.60
2023-04-22T21:36:16.760Z,2.85
2023-04-22T21:41:20.921Z,2.78
2023-04-22T21:46:24.409Z,2.45
2023-04-22T21:51:28.016Z,3.17
2023-04-22T21:56:33.511Z,2.67
2023-04-22T22:01:36.437Z,2.88
2023-04-22T22:06:39.239Z,2.65
2023-04-22T22:11:43.737Z,2.15
2023-04-22T22:16:46.985Z,3.00
2023-04-22T22:21:50.068Z,3.72
2023-04-22T22:26:54.183Z,2.45
2023-04-22T22:31:57.079Z,2.83
2023-04-22T22:37:00.167Z,3.03
2023-04-22T22:42:04.399Z,2.97
2023-04-22T22:47:08.406Z,3.05
2023-04-22T22:52:11.730Z,3.08
2023-04-22T22:57:16.242Z,3.50
2023-04-22T23:02:19.273Z,3.03
2023-04-22T23:07:22.378Z,3.17
2023-04-22T23:12:26.628Z,3.40
2023-04-22T23:17:29.613Z,3.38
2023-04-22T23:22:34.582Z,3.20
2023-04-22T23:27:39.343Z,4.30
2023-04-22T23:32:44.015Z,3.85
2023-04-22T23:37:47.676Z,3.45
2023-04-22T23:42:51.838Z,3.50
2023-04-22T23:47:54.856Z,3.80
2023-04-22T23:52:58.002Z,3.63
2023-04-22T23:58:02.589Z,3.95
